sensor_id;sensor_type;location;lat;lon;timestamp;pressure;altitude;pressure_sealevel;temperature;humidity
26043;BME280;13818;52.156;5.382;2022-08-03T00:01:02;101213.72;;;21.05;100.00
26043;BME280;13818;52.156;5.382;2022-08-03T00:03:28;101221.59;;;21.08;100.00
26043;BME280;13818;52.156;5.382;2022-08-03T00:05:55;101218.63;;;21.11;100.00
26043;BME280;13818;52.156;5.382;2022-08-03T00:08:21;101222.34;;;21.10;100.00
26043;BME280;13818;52.156;5.382;2022-08-03T00:10:49;101219.91;;;21.07;100.00
26043;BME280;13818;52.156;5.382;2022-08-03T00:13:16;101229.34;;;21.12;100.00
26043;BME280;13818;52.156;5.382;2022-08-03T00:15:44;101222.59;;;21.07;100.00
26043;BME280;13818;52.156;5.382;2022-08-03T00:18:10;101226.69;;;21.01;100.00
26043;BME280;13818;52.156;5.382;2022-08-03T00:20:37;101223.22;;;20.99;100.00
26043;BME280;13818;52.156;5.382;2022-08-03T00:23:04;101215.09;;;20.99;100.00
26043;BME280;13818;52.156;5.382;2022-08-03T00:25:31;101219.81;;;20.97;100.00
26043;BME280;13818;52.156;5.382;2022-08-03T00:27:59;101219.16;;;21.05;100.00
26043;BME280;13818;52.156;5.382;2022-08-03T00:30:26;101215.59;;;21.04;100.00
26043;BME280;13818;52.156;5.382;2022-08-03T00:32:52;101207.47;;;21.04;100.00
26043;BME280;13818;52.156;5.382;2022-08-03T00:35:19;101216.59;;;21.03;100.00
26043;BME280;13818;52.156;5.382;2022-08-03T00:37:45;101216.44;;;21.05;100.00
26043;BME280;13818;52.156;5.382;2022-08-03T00:40:13;101218.56;;;21.01;100.00
26043;BME280;13818;52.156;5.382;2022-08-03T00:42:48;101223.97;;;21.01;100.00
26043;BME280;13818;52.156;5.382;2022-08-03T00:45:17;101217.72;;;21.01;100.00
26043;BME280;13818;52.156;5.382;2022-08-03T00:47:43;101214.72;;;21.04;100.00
26043;BME280;13818;52.156;5.382;2022-08-03T00:50:10;101206.44;;;21.05;100.00
26043;BME280;13818;52.156;5.382;2022-08-03T00:52:37;101203.88;;;21.04;100.00
26043;BME280;13818;52.156;5.382;2022-08-03T00:55:05;101208.03;;;21.08;100.00
26043;BME280;13818;52.156;5.382;2022-08-03T00:57:32;101197.00;;;21.00;100.00
26043;BME280;13818;52.156;5.382;2022-08-03T00:59:58;101194.16;;;21.01;100.00
26043;BME280;13818;52.156;5.382;2022-08-03T01:02:27;101202.72;;;20.85;100.00
26043;BME280;13818;52.156;5.382;2022-08-03T01:04:54;101201.22;;;20.92;100.00
26043;BME280;13818;52.156;5.382;2022-08-03T01:07:26;101205.19;;;20.88;100.00
26043;BME280;13818;52.156;5.382;2022-08-03T01:09:59;101206.16;;;20.87;100.00
26043;BME280;13818;52.156;5.382;2022-08-03T01:12:31;101203.78;;;20.94;100.00
26043;BME280;13818;52.156;5.382;2022-08-03T01:15:09;101205.44;;;20.85;100.00
26043;BME280;13818;52.156;5.382;2022-08-03T01:17:45;101207.81;;;20.78;100.00
26043;BME280;13818;52.156;5.382;2022-08-03T01:20:16;101199.69;;;20.78;100.00
26043;BME280;13818;52.156;5.382;2022-08-03T01:23:05;101199.69;;;20.78;100.00
26043;BME280;13818;52.156;5.382;2022-08-03T01:25:50;101199.06;;;20.75;100.00
26043;BME280;13818;52.156;5.382;2022-08-03T01:28:31;101200.66;;;20.77;100.00
26043;BME280;13818;52.156;5.382;2022-08-03T01:31:03;101204.50;;;20.75;100.00
26043;BME280;13818;52.156;5.382;2022-08-03T01:33:36;101194.53;;;20.75;100.00
26043;BME280;13818;52.156;5.382;2022-08-03T01:36:06;101199.34;;;20.72;100.00
26043;BME280;13818;52.156;5.382;2022-08-03T01:38:39;101198.22;;;20.74;100.00
26043;BME280;13818;52.156;5.382;2022-08-03T01:41:11;101203.50;;;20.64;100.00
26043;BME280;13818;52.156;5.382;2022-08-03T01:43:41;101195.13;;;20.68;100.00
26043;BME280;13818;52.156;5.382;2022-08-03T01:46:11;101188.25;;;20.63;100.00
26043;BME280;13818;52.156;5.382;2022-08-03T01:48:38;101196.16;;;20.55;100.00
26043;BME280;13818;52.156;5.382;2022-08-03T01:51:07;101194.91;;;20.59;100.00
26043;BME280;13818;52.156;5.382;2022-08-03T01:53:35;101193.19;;;20.58;100.00
26043;BME280;13818;52.156;5.382;2022-08-03T01:56:05;101188.16;;;20.54;100.00
26043;BME280;13818;52.156;5.382;2022-08-03T01:58:34;101186.28;;;20.65;100.00
26043;BME280;13818;52.156;5.382;2022-08-03T02:01:02;101188.00;;;20.67;100.00
26043;BME280;13818;52.156;5.382;2022-08-03T02:03:33;101178.41;;;20.62;100.00
26043;BME280;13818;52.156;5.382;2022-08-03T02:06:02;101182.34;;;20.58;100.00
26043;BME280;13818;52.156;5.382;2022-08-03T02:08:31;101187.91;;;20.57;100.00
26043;BME280;13818;52.156;5.382;2022-08-03T02:10:59;101182.34;;;20.58;100.00
26043;BME280;13818;52.156;5.382;2022-08-03T02:13:27;101190.63;;;20.57;100.00
26043;BME280;13818;52.156;5.382;2022-08-03T02:15:55;101189.75;;;20.56;100.00
26043;BME280;13818;52.156;5.382;2022-08-03T02:18:23;101189.63;;;20.58;100.00
26043;BME280;13818;52.156;5.382;2022-08-03T02:20:52;101195.16;;;20.56;100.00
26043;BME280;13818;52.156;5.382;2022-08-03T02:23:19;101196.53;;;20.51;100.00
26043;BME280;13818;52.156;5.382;2022-08-03T02:25:49;101196.66;;;20.49;100.00
26043;BME280;13818;52.156;5.382;2022-08-03T02:28:19;101190.88;;;20.42;100.00
26043;BME280;13818;52.156;5.382;2022-08-03T02:30:49;101188.94;;;20.33;100.00
26043;BME280;13818;52.156;5.382;2022-08-03T02:33:20;101181.31;;;20.27;100.00
26043;BME280;13818;52.156;5.382;2022-08-03T02:35:48;101180.06;;;20.31;100.00
26043;BME280;13818;52.156;5.382;2022-08-03T02:38:19;101169.38;;;20.29;100.00
26043;BME280;13818;52.156;5.382;2022-08-03T02:40:48;101177.63;;;20.28;100.00
26043;BME280;13818;52.156;5.382;2022-08-03T02:43:16;101178.88;;;20.35;100.00
26043;BME280;13818;52.156;5.382;2022-08-03T02:45:48;101176.78;;;20.39;100.00
26043;BME280;13818;52.156;5.382;2022-08-03T02:48:17;101174.94;;;20.28;100.00
26043;BME280;13818;52.156;5.382;2022-08-03T02:50:47;101164.59;;;20.22;100.00
26043;BME280;13818;52.156;5.382;2022-08-03T02:53:18;101167.09;;;20.25;100.00
26043;BME280;13818;52.156;5.382;2022-08-03T02:55:45;101162.03;;;20.20;100.00
26043;BME280;13818;52.156;5.382;2022-08-03T02:58:13;101170.88;;;20.22;100.00
26043;BME280;13818;52.156;5.382;2022-08-03T03:00:43;101164.25;;;20.15;100.00
26043;BME280;13818;52.156;5.382;2022-08-03T03:03:10;101167.59;;;20.19;100.00
26043;BME280;13818;52.156;5.382;2022-08-03T03:05:37;101163.75;;;20.21;100.00
26043;BME280;13818;52.156;5.382;2022-08-03T03:08:05;101163.63;;;20.23;100.00
26043;BME280;13818;52.156;5.382;2022-08-03T03:10:34;101162.03;;;20.20;100.00
26043;BME280;13818;52.156;5.382;2022-08-03T03:13:02;101161.66;;;20.25;100.00
26043;BME280;13818;52.156;5.382;2022-08-03T03:15:29;101162.88;;;20.21;100.00
26043;BME280;13818;52.156;5.382;2022-08-03T03:17:58;101167.19;;;20.23;100.00
26043;BME280;13818;52.156;5.382;2022-08-03T03:20:27;101163.16;;;20.18;100.00
26043;BME280;13818;52.156;5.382;2022-08-03T03:22:54;101163.66;;;20.11;100.00
26043;BME280;13818;52.156;5.382;2022-08-03T03:25:21;101155.53;;;20.11;100.00
26043;BME280;13818;52.156;5.382;2022-08-03T03:27:50;101154.66;;;20.11;100.00
26043;BME280;13818;52.156;5.382;2022-08-03T03:30:16;101154.41;;;20.14;100.00
26043;BME280;13818;52.156;5.382;2022-08-03T03:32:43;101168.19;;;20.11;100.00
26043;BME280;13818;52.156;5.382;2022-08-03T03:35:10;101163.53;;;20.02;100.00
26043;BME280;13818;52.156;5.382;2022-08-03T03:37:39;101159.09;;;20.00;100.00
26043;BME280;13818;52.156;5.382;2022-08-03T03:40:06;101160.69;;;19.92;100.00
26043;BME280;13818;52.156;5.382;2022-08-03T03:42:33;101155.78;;;19.97;100.00
26043;BME280;13818;52.156;5.382;2022-08-03T03:45:05;101154.56;;;20.01;100.00
26043;BME280;13818;52.156;5.382;2022-08-03T03:47:32;101152.84;;;20.00;100.00
26043;BME280;13818;52.156;5.382;2022-08-03T03:50:00;101169.06;;;20.00;100.00
26043;BME280;13818;52.156;5.382;2022-08-03T03:52:27;101161.44;;;19.94;100.00
26043;BME280;13818;52.156;5.382;2022-08-03T03:54:53;101164.91;;;19.96;100.00
26043;BME280;13818;52.156;5.382;2022-08-03T03:57:20;101172.41;;;19.92;100.00
26043;BME280;13818;52.156;5.382;2022-08-03T03:59:46;101169.66;;;19.81;100.00
26043;BME280;13818;52.156;5.382;2022-08-03T04:02:14;101167.94;;;19.80;100.00
26043;BME280;13818;52.156;5.382;2022-08-03T04:04:41;101167.81;;;19.81;100.00
26043;BME280;13818;52.156;5.382;2022-08-03T04:07:26;101164.03;;;19.84;100.00
26043;BME280;13818;52.156;5.382;2022-08-03T04:10:12;101163.06;;;19.85;100.00
26043;BME280;13818;52.156;5.382;2022-08-03T04:13:11;101170.19;;;19.97;100.00
26043;BME280;13818;52.156;5.382;2022-08-03T04:15:39;101172.53;;;20.02;100.00
26043;BME280;13818;52.156;5.382;2022-08-03T04:18:10;101169.41;;;20.18;100.00
26043;BME280;13818;52.156;5.382;2022-08-03T04:20:39;101163.25;;;20.27;100.00
26043;BME280;13818;52.156;5.382;2022-08-03T04:23:10;101163.84;;;20.31;100.00
26043;BME280;13818;52.156;5.382;2022-08-03T04:25:38;101165.94;;;20.39;100.00
26043;BME280;13818;52.156;5.382;2022-08-03T04:28:06;101168.72;;;20.48;100.00
26043;BME280;13818;52.156;5.382;2022-08-03T04:30:35;101163.25;;;20.71;100.00
26043;BME280;13818;52.156;5.382;2022-08-03T04:33:03;101165.06;;;20.82;100.00
26043;BME280;13818;52.156;5.382;2022-08-03T04:35:32;101168.00;;;21.11;100.00
26043;BME280;13818;52.156;5.382;2022-08-03T04:38:02;101160.91;;;21.20;100.00
26043;BME280;13818;52.156;5.382;2022-08-03T04:40:33;101164.38;;;21.22;100.00
26043;BME280;13818;52.156;5.382;2022-08-03T04:43:00;101166.47;;;21.40;100.00
26043;BME280;13818;52.156;5.382;2022-08-03T04:45:29;101164.34;;;21.43;100.00
26043;BME280;13818;52.156;5.382;2022-08-03T04:47:57;101165.16;;;21.55;100.00
26043;BME280;13818;52.156;5.382;2022-08-03T04:50:24;101166.88;;;21.56;100.00
26043;BME280;13818;52.156;5.382;2022-08-03T04:52:54;101166.41;;;21.51;100.00
26043;BME280;13818;52.156;5.382;2022-08-03T04:55:25;101171.03;;;21.60;100.00
26043;BME280;13818;52.156;5.382;2022-08-03T04:57:51;101171.78;;;21.63;100.00
26043;BME280;13818;52.156;5.382;2022-08-03T05:00:18;101172.91;;;21.60;100.00
26043;BME280;13818;52.156;5.382;2022-08-03T05:02:45;101176.91;;;21.66;100.00
26043;BME280;13818;52.156;5.382;2022-08-03T05:05:11;101171.69;;;21.53;100.00
26043;BME280;13818;52.156;5.382;2022-08-03T05:07:38;101175.13;;;21.55;100.00
26043;BME280;13818;52.156;5.382;2022-08-03T05:10:08;101182.78;;;21.71;100.00
26043;BME280;13818;52.156;5.382;2022-08-03T05:12:34;101187.47;;;22.00;100.00
26043;BME280;13818;52.156;5.382;2022-08-03T05:15:01;101181.00;;;22.32;100.00
26043;BME280;13818;52.156;5.382;2022-08-03T05:17:27;101183.25;;;22.17;100.00
26043;BME280;13818;52.156;5.382;2022-08-03T05:19:54;101189.16;;;22.32;100.00
26043;BME280;13818;52.156;5.382;2022-08-03T05:22:22;101198.09;;;22.53;100.00
26043;BME280;13818;52.156;5.382;2022-08-03T05:24:49;101197.38;;;22.51;100.00
26043;BME280;13818;52.156;5.382;2022-08-03T05:27:17;101194.94;;;22.48;100.00
26043;BME280;13818;52.156;5.382;2022-08-03T05:29:44;101191.56;;;22.15;100.00
26043;BME280;13818;52.156;5.382;2022-08-03T05:32:11;101195.25;;;22.24;100.00
26043;BME280;13818;52.156;5.382;2022-08-03T05:34:37;101186.72;;;22.29;100.00
26043;BME280;13818;52.156;5.382;2022-08-03T05:37:04;101196.66;;;22.49;100.00
26043;BME280;13818;52.156;5.382;2022-08-03T05:39:31;101198.25;;;22.81;100.00
26043;BME280;13818;52.156;5.382;2022-08-03T05:41:59;101203.09;;;23.07;100.00
26043;BME280;13818;52.156;5.382;2022-08-03T05:44:27;101194.38;;;23.43;100.00
26043;BME280;13818;52.156;5.382;2022-08-03T05:46:55;101192.56;;;23.71;100.00
26043;BME280;13818;52.156;5.382;2022-08-03T05:49:22;101191.06;;;23.86;100.00
26043;BME280;13818;52.156;5.382;2022-08-03T05:51:49;101191.22;;;23.85;100.00
26043;BME280;13818;52.156;5.382;2022-08-03T05:54:15;101202.13;;;24.23;100.00
26043;BME280;13818;52.156;5.382;2022-08-03T05:56:42;101197.38;;;25.07;100.00
26043;BME280;13818;52.156;5.382;2022-08-03T05:59:08;101189.38;;;25.49;100.00
26043;BME280;13818;52.156;5.382;2022-08-03T06:01:36;101194.69;;;25.86;100.00
26043;BME280;13818;52.156;5.382;2022-08-03T06:04:03;101191.81;;;26.30;99.81
26043;BME280;13818;52.156;5.382;2022-08-03T06:06:30;101192.44;;;26.67;95.68
26043;BME280;13818;52.156;5.382;2022-08-03T06:08:56;101193.78;;;26.54;95.28
26043;BME280;13818;52.156;5.382;2022-08-03T06:11:23;101193.78;;;26.54;96.50
26043;BME280;13818;52.156;5.382;2022-08-03T06:13:49;101190.78;;;26.99;93.32
26043;BME280;13818;52.156;5.382;2022-08-03T06:16:16;101198.94;;;27.65;87.43
26043;BME280;13818;52.156;5.382;2022-08-03T06:18:43;101196.97;;;27.90;84.34
26043;BME280;13818;52.156;5.382;2022-08-03T06:21:10;101196.53;;;28.49;79.44
26043;BME280;13818;52.156;5.382;2022-08-03T06:23:36;101196.97;;;27.90;84.00
26043;BME280;13818;52.156;5.382;2022-08-03T06:26:03;101205.22;;;28.30;81.41
26043;BME280;13818;52.156;5.382;2022-08-03T06:28:29;101203.97;;;28.40;79.81
26043;BME280;13818;52.156;5.382;2022-08-03T06:30:56;101198.06;;;28.52;79.24
26043;BME280;13818;52.156;5.382;2022-08-03T06:33:22;101207.88;;;29.01;76.06
26043;BME280;13818;52.156;5.382;2022-08-03T06:35:50;101202.63;;;29.14;73.98
26043;BME280;13818;52.156;5.382;2022-08-03T06:38:17;101206.41;;;29.36;72.63
26043;BME280;13818;52.156;5.382;2022-08-03T06:40:44;101205.06;;;29.09;73.33
26043;BME280;13818;52.156;5.382;2022-08-03T06:43:11;101209.44;;;29.42;72.08
26043;BME280;13818;52.156;5.382;2022-08-03T06:45:39;101206.72;;;29.57;72.04
26043;BME280;13818;52.156;5.382;2022-08-03T06:48:06;101206.88;;;29.55;70.96
26043;BME280;13818;52.156;5.382;2022-08-03T06:50:35;101205.00;;;29.56;70.12
26043;BME280;13818;52.156;5.382;2022-08-03T06:53:03;101203.75;;;29.43;71.90
26043;BME280;13818;52.156;5.382;2022-08-03T06:55:30;101202.38;;;29.92;69.04
26043;BME280;13818;52.156;5.382;2022-08-03T06:57:57;101202.13;;;29.49;69.80
26043;BME280;13818;52.156;5.382;2022-08-03T07:00:24;101207.38;;;29.20;73.01
26043;BME280;13818;52.156;5.382;2022-08-03T07:02:51;101211.88;;;29.36;72.08
26043;BME280;13818;52.156;5.382;2022-08-03T07:05:17;101217.38;;;29.36;71.59
26043;BME280;13818;52.156;5.382;2022-08-03T07:07:44;101227.91;;;29.48;71.23
26043;BME280;13818;52.156;5.382;2022-08-03T07:10:12;101222.50;;;29.54;70.41
26043;BME280;13818;52.156;5.382;2022-08-03T07:12:38;101225.47;;;29.53;70.40
26043;BME280;13818;52.156;5.382;2022-08-03T07:15:06;101214.78;;;29.73;69.11
26043;BME280;13818;52.156;5.382;2022-08-03T07:17:34;101218.56;;;29.87;67.99
26043;BME280;13818;52.156;5.382;2022-08-03T07:20:03;101219.59;;;30.67;63.78
26043;BME280;13818;52.156;5.382;2022-08-03T07:22:30;101222.84;;;30.93;62.04
26043;BME280;13818;52.156;5.382;2022-08-03T07:24:56;101235.31;;;31.39;59.10
26043;BME280;13818;52.156;5.382;2022-08-03T07:27:24;101231.16;;;30.78;61.82
26043;BME280;13818;52.156;5.382;2022-08-03T07:29:52;101235.88;;;31.06;60.58
26043;BME280;13818;52.156;5.382;2022-08-03T07:32:19;101241.75;;;30.81;62.05
26043;BME280;13818;52.156;5.382;2022-08-03T07:34:45;101235.56;;;30.57;63.00
26043;BME280;13818;52.156;5.382;2022-08-03T07:37:12;101247.91;;;30.61;63.83
26043;BME280;13818;52.156;5.382;2022-08-03T07:39:38;101242.69;;;30.88;61.34
26043;BME280;13818;52.156;5.382;2022-08-03T07:42:05;101243.84;;;30.79;61.45
26043;BME280;13818;52.156;5.382;2022-08-03T07:44:33;101226.06;;;31.18;59.90
26043;BME280;13818;52.156;5.382;2022-08-03T07:46:59;101234.28;;;31.40;59.01
26043;BME280;13818;52.156;5.382;2022-08-03T07:49:26;101232.41;;;32.04;55.70
26043;BME280;13818;52.156;5.382;2022-08-03T07:51:52;101234.75;;;32.13;54.45
26043;BME280;13818;52.156;5.382;2022-08-03T07:54:32;101237.44;;;32.35;53.78
26043;BME280;13818;52.156;5.382;2022-08-03T07:56:59;101237.72;;;32.12;54.85
26043;BME280;13818;52.156;5.382;2022-08-03T07:59:25;101229.81;;;31.95;55.31
26043;BME280;13818;52.156;5.382;2022-08-03T08:01:53;101235.88;;;31.84;55.25
26043;BME280;13818;52.156;5.382;2022-08-03T08:04:20;101226.47;;;31.43;57.46
26043;BME280;13818;52.156;5.382;2022-08-03T08:06:47;101232.03;;;31.50;57.06
26043;BME280;13818;52.156;5.382;2022-08-03T08:09:14;101233.53;;;31.53;57.83
26043;BME280;13818;52.156;5.382;2022-08-03T08:11:40;101227.03;;;31.95;55.64
26043;BME280;13818;52.156;5.382;2022-08-03T08:14:06;101231.44;;;31.83;54.98
26043;BME280;13818;52.156;5.382;2022-08-03T08:16:33;101230.13;;;31.22;57.42
26043;BME280;13818;52.156;5.382;2022-08-03T08:19:01;101232.53;;;31.32;57.18
26043;BME280;13818;52.156;5.382;2022-08-03T08:21:28;101228.81;;;31.18;58.07
26043;BME280;13818;52.156;5.382;2022-08-03T08:23:54;101232.91;;;30.86;59.69
26043;BME280;13818;52.156;5.382;2022-08-03T08:26:21;101226.81;;;30.90;60.20
26043;BME280;13818;52.156;5.382;2022-08-03T08:28:47;101230.38;;;30.47;62.19
26043;BME280;13818;52.156;5.382;2022-08-03T08:31:14;101232.53;;;30.37;62.49
26043;BME280;13818;52.156;5.382;2022-08-03T08:33:41;101238.97;;;30.44;63.17
26043;BME280;13818;52.156;5.382;2022-08-03T08:36:08;101234.00;;;30.48;61.91
26043;BME280;13818;52.156;5.382;2022-08-03T08:38:35;101234.09;;;30.25;62.68
26043;BME280;13818;52.156;5.382;2022-08-03T08:41:01;101236.41;;;29.91;64.89
26043;BME280;13818;52.156;5.382;2022-08-03T08:43:28;101234.84;;;29.74;66.46
26043;BME280;13818;52.156;5.382;2022-08-03T08:45:56;101232.91;;;29.97;64.34
26043;BME280;13818;52.156;5.382;2022-08-03T08:48:24;101241.34;;;29.58;66.27
26043;BME280;13818;52.156;5.382;2022-08-03T08:50:54;101244.47;;;29.54;68.77
26043;BME280;13818;52.156;5.382;2022-08-03T08:53:25;101240.81;;;29.77;67.80
26043;BME280;13818;52.156;5.382;2022-08-03T08:55:54;101234.97;;;29.95;64.99
26043;BME280;13818;52.156;5.382;2022-08-03T08:58:21;101231.53;;;29.78;65.42
26043;BME280;13818;52.156;5.382;2022-08-03T09:00:49;101245.81;;;29.59;67.01
26043;BME280;13818;52.156;5.382;2022-08-03T09:03:15;101237.38;;;29.45;69.13
26043;BME280;13818;52.156;5.382;2022-08-03T09:05:43;101240.28;;;29.44;69.42
26043;BME280;13818;52.156;5.382;2022-08-03T09:08:10;101230.16;;;29.21;71.40
26043;BME280;13818;52.156;5.382;2022-08-03T09:10:38;101231.94;;;28.90;72.47
26043;BME280;13818;52.156;5.382;2022-08-03T09:13:06;101236.28;;;29.08;71.13
26043;BME280;13818;52.156;5.382;2022-08-03T09:15:33;101240.56;;;29.34;70.02
26043;BME280;13818;52.156;5.382;2022-08-03T09:18:03;101238.38;;;29.29;68.75
26043;BME280;13818;52.156;5.382;2022-08-03T09:20:32;101224.63;;;29.06;70.90
26043;BME280;13818;52.156;5.382;2022-08-03T09:23:00;101231.56;;;29.17;70.49
26043;BME280;13818;52.156;5.382;2022-08-03T09:25:30;101234.06;;;29.03;71.34
26043;BME280;13818;52.156;5.382;2022-08-03T09:28:06;101229.66;;;29.02;70.96
26043;BME280;13818;52.156;5.382;2022-08-03T09:30:34;101233.56;;;28.85;71.66
26043;BME280;13818;52.156;5.382;2022-08-03T09:33:03;101229.69;;;28.94;71.20
26043;BME280;13818;52.156;5.382;2022-08-03T09:35:31;101231.56;;;29.17;70.47
26043;BME280;13818;52.156;5.382;2022-08-03T09:38:22;101229.88;;;29.16;70.39
26043;BME280;13818;52.156;5.382;2022-08-03T09:40:51;101238.22;;;29.22;69.73
26043;BME280;13818;52.156;5.382;2022-08-03T09:43:20;101233.28;;;29.18;68.84
26043;BME280;13818;52.156;5.382;2022-08-03T09:45:46;101236.66;;;29.28;67.29
26043;BME280;13818;52.156;5.382;2022-08-03T09:48:21;101237.25;;;29.38;65.79
26043;BME280;13818;52.156;5.382;2022-08-03T09:50:48;101228.66;;;29.42;64.61
26043;BME280;13818;52.156;5.382;2022-08-03T09:53:16;101224.41;;;29.69;64.01
26043;BME280;13818;52.156;5.382;2022-08-03T09:55:49;101230.50;;;29.94;62.66
26043;BME280;13818;52.156;5.382;2022-08-03T09:58:16;101227.13;;;29.92;62.90
26043;BME280;13818;52.156;5.382;2022-08-03T10:01:02;101229.19;;;29.90;63.82
26043;BME280;13818;52.156;5.382;2022-08-03T10:03:32;101228.63;;;29.95;63.89
26043;BME280;13818;52.156;5.382;2022-08-03T10:06:13;101233.59;;;29.61;65.38
26043;BME280;13818;52.156;5.382;2022-08-03T10:08:40;101229.22;;;29.52;66.52
26043;BME280;13818;52.156;5.382;2022-08-03T10:11:06;101238.13;;;29.69;63.37
26043;BME280;13818;52.156;5.382;2022-08-03T10:13:33;101235.81;;;29.43;64.33
26043;BME280;13818;52.156;5.382;2022-08-03T10:16:03;101243.50;;;29.47;63.01
26043;BME280;13818;52.156;5.382;2022-08-03T10:18:30;101238.88;;;29.25;65.00
26043;BME280;13818;52.156;5.382;2022-08-03T10:21:02;101242.84;;;29.22;66.20
26043;BME280;13818;52.156;5.382;2022-08-03T10:23:31;101239.75;;;29.25;65.69
26043;BME280;13818;52.156;5.382;2022-08-03T10:26:02;101232.50;;;29.32;65.32
26043;BME280;13818;52.156;5.382;2022-08-03T10:28:34;101236.13;;;29.25;65.13
26043;BME280;13818;52.156;5.382;2022-08-03T10:31:03;101236.88;;;29.42;65.62
26043;BME280;13818;52.156;5.382;2022-08-03T10:33:33;101225.72;;;29.43;63.09
26043;BME280;13818;52.156;5.382;2022-08-03T10:36:04;101227.53;;;29.51;61.49
26043;BME280;13818;52.156;5.382;2022-08-03T10:38:36;101227.22;;;29.46;61.26
26043;BME280;13818;52.156;5.382;2022-08-03T10:41:04;101231.97;;;29.52;62.18
26043;BME280;13818;52.156;5.382;2022-08-03T10:43:35;101223.84;;;29.59;61.14
26043;BME280;13818;52.156;5.382;2022-08-03T10:46:08;101223.16;;;29.42;60.37
26043;BME280;13818;52.156;5.382;2022-08-03T10:48:35;101217.97;;;29.47;61.65
26043;BME280;13818;52.156;5.382;2022-08-03T10:51:02;101222.59;;;29.46;61.40
26043;BME280;13818;52.156;5.382;2022-08-03T10:53:37;101213.41;;;29.39;61.13
26043;BME280;13818;52.156;5.382;2022-08-03T10:56:36;101217.06;;;29.31;59.88
26043;BME280;13818;52.156;5.382;2022-08-03T10:59:56;101212.78;;;29.29;59.98
26043;BME280;13818;52.156;5.382;2022-08-03T11:05:26;101222.94;;;29.28;59.40
26043;BME280;13818;52.156;5.382;2022-08-03T11:10:34;101202.72;;;29.44;60.41
26043;BME280;13818;52.156;5.382;2022-08-03T11:13:05;101206.59;;;29.50;59.85
26043;BME280;13818;52.156;5.382;2022-08-03T11:15:33;101219.69;;;29.48;58.37
26043;BME280;13818;52.156;5.382;2022-08-03T11:18:07;101201.66;;;29.60;56.99
26043;BME280;13818;52.156;5.382;2022-08-03T11:20:48;101197.81;;;29.69;55.58
26043;BME280;13818;52.156;5.382;2022-08-03T11:23:17;101197.22;;;29.74;56.92
26043;BME280;13818;52.156;5.382;2022-08-03T11:28:29;101194.78;;;29.64;57.17
26043;BME280;13818;52.156;5.382;2022-08-03T11:30:55;101201.97;;;29.65;56.31
26043;BME280;13818;52.156;5.382;2022-08-03T11:33:29;101205.28;;;29.76;55.96
26043;BME280;13818;52.156;5.382;2022-08-03T11:36:01;101204.34;;;29.68;57.03
26043;BME280;13818;52.156;5.382;2022-08-03T11:38:27;101201.19;;;29.71;56.90
26043;BME280;13818;52.156;5.382;2022-08-03T11:40:53;101201.81;;;29.82;56.88
26043;BME280;13818;52.156;5.382;2022-08-03T11:43:42;101198.97;;;29.90;53.79
26043;BME280;13818;52.156;5.382;2022-08-03T11:46:10;101200.28;;;29.94;52.64
26043;BME280;13818;52.156;5.382;2022-08-03T11:48:42;101197.72;;;30.08;52.18
26043;BME280;13818;52.156;5.382;2022-08-03T11:51:20;101201.91;;;29.89;51.84
26043;BME280;13818;52.156;5.382;2022-08-03T11:53:50;101200.94;;;29.81;51.92
26043;BME280;13818;52.156;5.382;2022-08-03T11:56:17;101194.78;;;29.94;50.30
26043;BME280;13818;52.156;5.382;2022-08-03T11:58:45;101194.69;;;30.02;49.84
26043;BME280;13818;52.156;5.382;2022-08-03T12:01:12;101190.63;;;29.98;50.97
26043;BME280;13818;52.156;5.382;2022-08-03T12:03:41;101190.25;;;30.01;49.47
26043;BME280;13818;52.156;5.382;2022-08-03T12:06:08;101188.38;;;30.02;50.74
26043;BME280;13818;52.156;5.382;2022-08-03T12:08:37;101193.16;;;30.15;50.45
26043;BME280;13818;52.156;5.382;2022-08-03T12:11:04;101197.78;;;30.14;48.73
26043;BME280;13818;52.156;5.382;2022-08-03T12:13:39;101198.88;;;29.98;50.46
26043;BME280;13818;52.156;5.382;2022-08-03T12:16:06;101191.81;;;30.11;48.42
26043;BME280;13818;52.156;5.382;2022-08-03T12:18:33;101191.44;;;30.29;48.10
26043;BME280;13818;52.156;5.382;2022-08-03T12:21:05;101201.56;;;30.28;46.84
26043;BME280;13818;52.156;5.382;2022-08-03T12:23:33;101197.03;;;30.21;47.85
26043;BME280;13818;52.156;5.382;2022-08-03T12:26:05;101197.13;;;30.27;47.76
26043;BME280;13818;52.156;5.382;2022-08-03T12:28:32;101196.56;;;30.17;47.97
26043;BME280;13818;52.156;5.382;2022-08-03T12:31:01;101188.78;;;30.21;48.08
26043;BME280;13818;52.156;5.382;2022-08-03T12:33:28;101196.44;;;30.40;47.82
26043;BME280;13818;52.156;5.382;2022-08-03T12:36:03;101187.25;;;30.48;48.34
26043;BME280;13818;52.156;5.382;2022-08-03T12:38:31;101192.75;;;30.48;46.10
26043;BME280;13818;52.156;5.382;2022-08-03T12:40:59;101189.41;;;30.53;46.38
26043;BME280;13818;52.156;5.382;2022-08-03T12:43:27;101189.00;;;30.56;45.75
26043;BME280;13818;52.156;5.382;2022-08-03T12:46:10;101197.94;;;30.58;46.86
26043;BME280;13818;52.156;5.382;2022-08-03T12:48:59;101188.25;;;30.47;47.47
26043;BME280;13818;52.156;5.382;2022-08-03T12:51:27;101190.16;;;30.46;48.18
26043;BME280;13818;52.156;5.382;2022-08-03T12:53:54;101192.91;;;30.61;47.88
26043;BME280;13818;52.156;5.382;2022-08-03T12:56:21;101186.53;;;30.61;48.42
26043;BME280;13818;52.156;5.382;2022-08-03T12:58:50;101186.38;;;30.47;49.28
26043;BME280;13818;52.156;5.382;2022-08-03T13:01:17;101187.31;;;30.55;49.47
26043;BME280;13818;52.156;5.382;2022-08-03T13:03:45;101195.19;;;30.58;49.70